Weather Melbourne :: Current Conditions and Historical Data

 
Daily Summary for April 24, 2014 Units:  Both    English   Metric
« Previous Day
Next Day »
Daily Weekly Monthly Yearly Custom
  Current: High: Low: Average:
Temperature: 60.1 °F /  15.6 °C 65.9 °F /  18.8 °C 55.5 °F /  13.1 °C 59.5 °F /  15.3 °C
Dew Point: 44.8 °F /  7.1 °C 53.4 °F /  11.9 °C 40.0 °F /  4.4 °C 44.7 °F /  7.1 °C
Humidity: 57 % 88 % 39 % 59 %
Wind Speed: 9.2 mph /  14.8 km/h 19.6 mph /  31.5 km/h - 9.3 mph /  15 km/h
Wind Gust: 9.2 mph /  14.8 km/h 19.6 mph /  31.5 km/h - -
Wind:South - - SW
Pressure: 30.06 in /  1017.8 hPa 30.06 in /  1017.8 hPa 29.82 in /  1009.7 hPa -
Precipitation: 0.01 in /  0.25 mm      
Melbourne, Australia Weather Graphs
 
 
Melbourne, current snapshot. Courtesy of citylink.com.au
Weather Melbourne

Melbourne Weather Radar




Weather in Melbourne, AU
Hourly Data for April 24, 2014
Time Temperature Dew Point Pressure Wind Wind Speed Wind Gust Humidity Rainfall Rate (Hourly) solar Conditions
00:02 56.6 °F /  13.7 °C 44.1 °F /  6.7 °C 29.88 in /  1011.7 hPa North 4.6 mph /  7.4 km/h 4.6 mph /  7.4 km/h 63 % 0.00 in /  0 mm 0.0 W/m2 CLR
00:07 56.6 °F /  13.7 °C 44.1 °F /  6.7 °C 29.88 in /  1011.7 hPa NNE 4.6 mph /  7.4 km/h 4.6 mph /  7.4 km/h 63 % 0.00 in /  0 mm 0.0 W/m2 CLR
00:12 56.8 °F /  13.8 °C 43.9 °F /  6.6 °C 29.87 in /  1011.4 hPa North 5.8 mph /  9.3 km/h 5.8 mph /  9.3 km/h 62 % 0.00 in /  0 mm 0.0 W/m2 CLR
00:17 56.8 °F /  13.8 °C 43.9 °F /  6.6 °C 29.87 in /  1011.4 hPa NE 8.1 mph /  13 km/h 8.1 mph /  13 km/h 62 % 0.00 in /  0 mm 0.0 W/m2 CLR
00:22 56.9 °F /  13.8 °C 44.0 °F /  6.7 °C 29.87 in /  1011.4 hPa NNE 5.8 mph /  9.3 km/h 5.8 mph /  9.3 km/h 62 % 0.00 in /  0 mm 0.0 W/m2 CLR
00:27 56.9 °F /  13.8 °C 44.0 °F /  6.7 °C 29.87 in /  1011.4 hPa North 4.0 mph /  6.4 km/h 4.0 mph /  6.4 km/h 62 % 0.00 in /  0 mm 0.0 W/m2 CLR
00:32 56.8 °F /  13.8 °C 43.9 °F /  6.6 °C 29.86 in /  1011.1 hPa NNE 4.6 mph /  7.4 km/h 4.6 mph /  7.4 km/h 62 % 0.00 in /  0 mm 0.0 W/m2 CLR
00:37 56.8 °F /  13.8 °C 43.9 °F /  6.6 °C 29.86 in /  1011.1 hPa North 6.0 mph /  9.7 km/h 6.0 mph /  9.7 km/h 62 % 0.00 in /  0 mm 0.0 W/m2 CLR
00:42 56.8 °F /  13.8 °C 43.9 °F /  6.6 °C 29.86 in /  1011.1 hPa North 5.8 mph /  9.3 km/h 5.8 mph /  9.3 km/h 62 % 0.00 in /  0 mm 0.0 W/m2 CLR
00:47 56.9 °F /  13.8 °C 44.0 °F /  6.7 °C 29.86 in /  1011.1 hPa NNE 8.1 mph /  13 km/h 8.1 mph /  13 km/h 62 % 0.00 in /  0 mm 0.0 W/m2 CLR
00:52 56.9 °F /  13.8 °C 44.0 °F /  6.7 °C 29.86 in /  1011.1 hPa North 6.9 mph /  11.1 km/h 6.9 mph /  11.1 km/h 62 % 0.00 in /  0 mm 0.0 W/m2 CLR
00:57 57.0 °F /  13.9 °C 44.1 °F /  6.7 °C 29.86 in /  1011.1 hPa NNE 5.8 mph /  9.3 km/h 5.8 mph /  9.3 km/h 62 % 0.00 in /  0 mm 0.0 W/m2 CLR
01:02 57.0 °F /  13.9 °C 43.7 °F /  6.5 °C 29.86 in /  1011.1 hPa NW 8.1 mph /  13 km/h 8.1 mph /  13 km/h 61 % 0.00 in /  0 mm 0.0 W/m2 CLR
01:07 57.2 °F /  14 °C 43.9 °F /  6.6 °C 29.86 in /  1011.1 hPa North 8.1 mph /  13 km/h 8.1 mph /  13 km/h 61 % 0.00 in /  0 mm 0.0 W/m2 CLR
01:12 57.3 °F /  14.1 °C 44.0 °F /  6.7 °C 29.86 in /  1011.1 hPa NNW 8.1 mph /  13 km/h 8.1 mph /  13 km/h 61 % 0.00 in /  0 mm 0.0 W/m2 CLR
01:17 57.3 °F /  14.1 °C 44.0 °F /  6.7 °C 29.86 in /  1011.1 hPa NNW 4.6 mph /  7.4 km/h 4.6 mph /  7.4 km/h 61 % 0.00 in /  0 mm 0.0 W/m2 CLR
01:22 57.3 °F /  14.1 °C 44.0 °F /  6.7 °C 29.86 in /  1011.1 hPa North 5.8 mph /  9.3 km/h 5.8 mph /  9.3 km/h 61 % 0.00 in /  0 mm 0.0 W/m2 CLR
01:27 57.3 °F /  14.1 °C 44.0 °F /  6.7 °C 29.86 in /  1011.1 hPa NNW 8.1 mph /  13 km/h 8.1 mph /  13 km/h 61 % 0.00 in /  0 mm 0.0 W/m2 CLR
01:32 57.4 °F /  14.1 °C 44.1 °F /  6.7 °C 29.86 in /  1011.1 hPa NNE 5.8 mph /  9.3 km/h 5.8 mph /  9.3 km/h 61 % 0.00 in /  0 mm 0.0 W/m2 CLR
01:37 57.4 °F /  14.1 °C 44.1 °F /  6.7 °C 29.86 in /  1011.1 hPa NE 6.9 mph /  11.1 km/h 6.9 mph /  11.1 km/h 61 % 0.00 in /  0 mm 0.0 W/m2 CLR
01:42 57.5 °F /  14.2 °C 43.7 °F /  6.5 °C 29.85 in /  1010.7 hPa NW 8.0 mph /  12.9 km/h 8.0 mph /  12.9 km/h 60 % 0.00 in /  0 mm 0.0 W/m2 CLR
01:47 57.6 °F /  14.2 °C 43.8 °F /  6.6 °C 29.85 in /  1010.7 hPa NNW 8.1 mph /  13 km/h 8.1 mph /  13 km/h 60 % 0.00 in /  0 mm 0.0 W/m2 CLR
01:52 57.6 °F /  14.2 °C 43.8 °F /  6.6 °C 29.85 in /  1010.7 hPa North 5.0 mph /  8 km/h 5.0 mph /  8 km/h 60 % 0.00 in /  0 mm 0.0 W/m2 CLR
01:57 57.7 °F /  14.3 °C 43.9 °F /  6.6 °C 29.85 in /  1010.7 hPa NNE 5.8 mph /  9.3 km/h 5.8 mph /  9.3 km/h 60 % 0.00 in /  0 mm 0.0 W/m2 CLR
02:02 57.7 °F /  14.3 °C 43.9 °F /  6.6 °C 29.85 in /  1010.7 hPa NNW 4.6 mph /  7.4 km/h 4.6 mph /  7.4 km/h 60 % 0.00 in /  0 mm 0.0 W/m2 CLR
02:07 57.7 °F /  14.3 °C 43.9 °F /  6.6 °C 29.85 in /  1010.7 hPa North 4.6 mph /  7.4 km/h 4.6 mph /  7.4 km/h 60 % 0.00 in /  0 mm 0.0 W/m2 CLR
02:12 57.7 °F /  14.3 °C 43.9 °F /  6.6 °C 29.85 in /  1010.7 hPa North 9.2 mph /  14.8 km/h 9.2 mph /  14.8 km/h 60 % 0.00 in /  0 mm 0.0 W/m2 CLR
02:17 57.6 °F /  14.2 °C 43.8 °F /  6.6 °C 29.85 in /  1010.7 hPa North 8.1 mph /  13 km/h 8.1 mph /  13 km/h 60 % 0.00 in /  0 mm 0.0 W/m2 CLR
02:22 57.5 °F /  14.2 °C 43.7 °F /  6.5 °C 29.85 in /  1010.7 hPa NNW 10.4 mph /  16.7 km/h 10.4 mph /  16.7 km/h 60 % 0.00 in /  0 mm 0.0 W/m2 CLR
02:27 57.5 °F /  14.2 °C 43.7 °F /  6.5 °C 29.84 in /  1010.4 hPa North 5.0 mph /  8 km/h 5.0 mph /  8 km/h 60 % 0.00 in /  0 mm 0.0 W/m2 CLR
02:32 57.4 °F /  14.1 °C 43.6 °F /  6.4 °C 29.84 in /  1010.4 hPa North 8.1 mph /  13 km/h 8.1 mph /  13 km/h 60 % 0.00 in /  0 mm 0.0 W/m2 CLR
02:37 57.4 °F /  14.1 °C 43.6 °F /  6.4 °C 29.84 in /  1010.4 hPa North 10.4 mph /  16.7 km/h 10.4 mph /  16.7 km/h 60 % 0.00 in /  0 mm 0.0 W/m2 CLR
02:42 57.3 °F /  14.1 °C 43.5 °F /  6.4 °C 29.84 in /  1010.4 hPa NNW 9.2 mph /  14.8 km/h 9.2 mph /  14.8 km/h 60 % 0.00 in /  0 mm 0.0 W/m2 CLR
02:47 57.2 °F /  14 °C 43.4 °F /  6.3 °C 29.83 in /  1010 hPa North 8.1 mph /  13 km/h 8.1 mph /  13 km/h 60 % 0.00 in /  0 mm 0.0 W/m2 CLR
02:52 57.2 °F /  14 °C 43.4 °F /  6.3 °C 29.83 in /  1010 hPa NNW 6.9 mph /  11.1 km/h 6.9 mph /  11.1 km/h 60 % 0.00 in /  0 mm 0.0 W/m2 CLR
02:57 57.2 °F /  14 °C 43.4 °F /  6.3 °C 29.83 in /  1010 hPa NNE 10.4 mph /  16.7 km/h 10.4 mph /  16.7 km/h 60 % 0.00 in /  0 mm 0.0 W/m2 CLR
03:02 57.2 °F /  14 °C 43.0 °F /  6.1 °C 29.83 in /  1010 hPa North 11.5 mph /  18.5 km/h 11.5 mph /  18.5 km/h 59 % 0.00 in /  0 mm 0.0 W/m2 CLR
03:07 57.3 °F /  14.1 °C 43.1 °F /  6.2 °C 29.83 in /  1010 hPa NNE 4.6 mph /  7.4 km/h 4.6 mph /  7.4 km/h 59 % 0.00 in /  0 mm 0.0 W/m2 CLR
03:12 57.3 °F /  14.1 °C 43.1 °F /  6.2 °C 29.83 in /  1010 hPa NNW 11.5 mph /  18.5 km/h 11.5 mph /  18.5 km/h 59 % 0.00 in /  0 mm 0.0 W/m2 CLR
03:17 57.3 °F /  14.1 °C 43.1 °F /  6.2 °C 29.82 in /  1009.7 hPa North 13.8 mph /  22.2 km/h 13.8 mph /  22.2 km/h 59 % 0.00 in /  0 mm 0.0 W/m2 CLR
03:22 57.4 °F /  14.1 °C 43.2 °F /  6.2 °C 29.82 in /  1009.7 hPa NNW 9.2 mph /  14.8 km/h 9.2 mph /  14.8 km/h 59 % 0.00 in /  0 mm 0.0 W/m2 CLR
03:27 57.4 °F /  14.1 °C 42.7 °F /  5.9 °C 29.82 in /  1009.7 hPa NW 10.4 mph /  16.7 km/h 10.4 mph /  16.7 km/h 58 % 0.00 in /  0 mm 0.0 W/m2 CLR
03:32 57.5 °F /  14.2 °C 42.8 °F /  6 °C 29.82 in /  1009.7 hPa NNE 9.2 mph /  14.8 km/h 9.2 mph /  14.8 km/h 58 % 0.00 in /  0 mm 0.0 W/m2 CLR
03:37 57.5 °F /  14.2 °C 42.4 °F /  5.8 °C 29.82 in /  1009.7 hPa NW 9.2 mph /  14.8 km/h 9.2 mph /  14.8 km/h 57 % 0.00 in /  0 mm 0.0 W/m2 CLR
03:42 57.5 °F /  14.2 °C 42.4 °F /  5.8 °C 29.82 in /  1009.7 hPa WNW 10.4 mph /  16.7 km/h 10.4 mph /  16.7 km/h 57 % 0.00 in /  0 mm 0.0 W/m2 CLR
03:47 57.6 °F /  14.2 °C 42.5 °F /  5.8 °C 29.83 in /  1010 hPa NW 4.0 mph /  6.4 km/h 4.0 mph /  6.4 km/h 57 % 0.00 in /  0 mm 0.0 W/m2 CLR
03:52 57.6 °F /  14.2 °C 42.0 °F /  5.6 °C 29.83 in /  1010 hPa NW 9.2 mph /  14.8 km/h 9.2 mph /  14.8 km/h 56 % 0.00 in /  0 mm 0.0 W/m2 CLR
03:57 57.7 °F /  14.3 °C 42.1 °F /  5.6 °C 29.83 in /  1010 hPa NNW 9.2 mph /  14.8 km/h 9.2 mph /  14.8 km/h 56 % 0.00 in /  0 mm 0.0 W/m2 CLR
04:02 57.7 °F /  14.3 °C 42.1 °F /  5.6 °C 29.83 in /  1010 hPa NW 10.4 mph /  16.7 km/h 10.4 mph /  16.7 km/h 56 % 0.00 in /  0 mm 0.0 W/m2 CLR
04:07 57.8 °F /  14.3 °C 41.7 °F /  5.4 °C 29.83 in /  1010 hPa NW 9.2 mph /  14.8 km/h 9.2 mph /  14.8 km/h 55 % 0.00 in /  0 mm 0.0 W/m2 CLR
04:12 57.8 °F /  14.3 °C 41.7 °F /  5.4 °C 29.83 in /  1010 hPa WNW 6.9 mph /  11.1 km/h 6.9 mph /  11.1 km/h 55 % 0.00 in /  0 mm 0.0 W/m2 CLR
04:17 57.8 °F /  14.3 °C 41.7 °F /  5.4 °C 29.83 in /  1010 hPa NW 11.5 mph /  18.5 km/h 11.5 mph /  18.5 km/h 55 % 0.00 in /  0 mm 0.0 W/m2 CLR
04:22 57.8 °F /  14.3 °C 41.7 °F /  5.4 °C 29.83 in /  1010 hPa NNW 9.2 mph /  14.8 km/h 9.2 mph /  14.8 km/h 55 % 0.00 in /  0 mm 0.0 W/m2 CLR
04:27 57.8 °F /  14.3 °C 41.7 °F /  5.4 °C 29.83 in /  1010 hPa NNW 5.8 mph /  9.3 km/h 5.8 mph /  9.3 km/h 55 % 0.00 in /  0 mm 0.0 W/m2 CLR
04:32 57.8 °F /  14.3 °C 41.7 °F /  5.4 °C 29.83 in /  1010 hPa WNW 4.0 mph /  6.4 km/h 4.0 mph /  6.4 km/h 55 % 0.00 in /  0 mm 0.0 W/m2 CLR
04:37 57.7 °F /  14.3 °C 41.6 °F /  5.3 °C 29.83 in /  1010 hPa North 10.4 mph /  16.7 km/h 10.4 mph /  16.7 km/h 55 % 0.00 in /  0 mm 0.0 W/m2 CLR
04:42 57.7 °F /  14.3 °C 41.6 °F /  5.3 °C 29.83 in /  1010 hPa North 10.4 mph /  16.7 km/h 10.4 mph /  16.7 km/h 55 % 0.00 in /  0 mm 0.0 W/m2 CLR
04:47 57.6 °F /  14.2 °C 41.5 °F /  5.3 °C 29.84 in /  1010.4 hPa NNW 11.5 mph /  18.5 km/h 11.5 mph /  18.5 km/h 55 % 0.00 in /  0 mm 0.0 W/m2 CLR
04:52 57.6 °F /  14.2 °C 41.5 °F /  5.3 °C 29.84 in /  1010.4 hPa North 11.5 mph /  18.5 km/h 11.5 mph /  18.5 km/h 55 % 0.00 in /  0 mm 0.0 W/m2 CLR
04:57 57.5 °F /  14.2 °C 41.4 °F /  5.2 °C 29.84 in /  1010.4 hPa North 11.5 mph /  18.5 km/h 11.5 mph /  18.5 km/h 55 % 0.00 in /  0 mm 0.0 W/m2 CLR
05:02 57.6 °F /  14.2 °C 41.5 °F /  5.3 °C 29.83 in /  1010 hPa NNW 9.2 mph /  14.8 km/h 9.2 mph /  14.8 km/h 55 % 0.00 in /  0 mm 0.0 W/m2 CLR
05:07 57.5 °F /  14.2 °C 41.4 °F /  5.2 °C 29.83 in /  1010 hPa NNE 9.2 mph /  14.8 km/h 9.2 mph /  14.8 km/h 55 % 0.00 in /  0 mm 0.0 W/m2 CLR
05:12 57.5 °F /  14.2 °C 41.4 °F /  5.2 °C 29.84 in /  1010.4 hPa North 10.4 mph /  16.7 km/h 10.4 mph /  16.7 km/h 55 % 0.00 in /  0 mm 0.0 W/m2 CLR
05:18 57.5 °F /  14.2 °C 41.4 °F /  5.2 °C 29.83 in /  1010 hPa NW 10.4 mph /  16.7 km/h 10.4 mph /  16.7 km/h 55 % 0.00 in /  0 mm 0.0 W/m2 CLR
05:23 57.5 °F /  14.2 °C 41.4 °F /  5.2 °C 29.84 in /  1010.4 hPa North 10.4 mph /  16.7 km/h 10.4 mph /  16.7 km/h 55 % 0.00 in /  0 mm 0.0 W/m2 CLR
05:28 57.4 °F /  14.1 °C 41.8 °F /  5.4 °C 29.84 in /  1010.4 hPa North 8.1 mph /  13 km/h 8.1 mph /  13 km/h 56 % 0.00 in /  0 mm 0.0 W/m2 CLR
05:33 57.3 °F /  14.1 °C 41.3 °F /  5.2 °C 29.84 in /  1010.4 hPa NNE 4.6 mph /  7.4 km/h 4.6 mph /  7.4 km/h 55 % 0.00 in /  0 mm 0.0 W/m2 CLR
05:38 57.3 °F /  14.1 °C 41.7 °F /  5.4 °C 29.85 in /  1010.7 hPa North 6.9 mph /  11.1 km/h 6.9 mph /  11.1 km/h 56 % 0.00 in /  0 mm 0.0 W/m2 CLR
05:43 57.2 °F /  14 °C 41.6 °F /  5.3 °C 29.85 in /  1010.7 hPa NNW 8.1 mph /  13 km/h 8.1 mph /  13 km/h 56 % 0.00 in /  0 mm 0.0 W/m2 CLR
05:48 57.1 °F /  13.9 °C 42.0 °F /  5.6 °C 29.85 in /  1010.7 hPa North 3.5 mph /  5.6 km/h 3.5 mph /  5.6 km/h 57 % 0.00 in /  0 mm 0.0 W/m2 CLR
05:53 57.1 °F /  13.9 °C 42.0 °F /  5.6 °C 29.86 in /  1011.1 hPa NNW 3.5 mph /  5.6 km/h 3.5 mph /  5.6 km/h 57 % 0.00 in /  0 mm 0.0 W/m2 CLR
05:58 57.0 °F /  13.9 °C 41.9 °F /  5.5 °C 29.86 in /  1011.1 hPa WNW 5.8 mph /  9.3 km/h 5.8 mph /  9.3 km/h 57 % 0.00 in /  0 mm 0.0 W/m2 CLR
06:03 56.9 °F /  13.8 °C 41.8 °F /  5.4 °C 29.86 in /  1011.1 hPa NW 9.0 mph /  14.5 km/h 9.0 mph /  14.5 km/h 57 % 0.00 in /  0 mm 0.0 W/m2 BKN
06:08 56.9 °F /  13.8 °C 41.8 °F /  5.4 °C 29.86 in /  1011.1 hPa WNW 5.8 mph /  9.3 km/h 5.8 mph /  9.3 km/h 57 % 0.00 in /  0 mm 0.0 W/m2 BKN
06:13 56.9 °F /  13.8 °C 41.8 °F /  5.4 °C 29.87 in /  1011.4 hPa WNW 12.7 mph /  20.4 km/h 12.7 mph /  20.4 km/h 57 % 0.00 in /  0 mm 0.0 W/m2 BKN
06:18 56.9 °F /  13.8 °C 42.3 °F /  5.7 °C 29.87 in /  1011.4 hPa NW 10.4 mph /  16.7 km/h 10.4 mph /  16.7 km/h 58 % 0.00 in /  0 mm 0.0 W/m2 BKN
06:23 56.8 °F /  13.8 °C 42.2 °F /  5.7 °C 29.87 in /  1011.4 hPa WNW 11.5 mph /  18.5 km/h 11.5 mph /  18.5 km/h 58 % 0.00 in /  0 mm 0.0 W/m2 BKN
06:28 56.7 °F /  13.7 °C 42.1 °F /  5.6 °C 29.87 in /  1011.4 hPa WNW 11.5 mph /  18.5 km/h 11.5 mph /  18.5 km/h 58 % 0.00 in /  0 mm 0.0 W/m2 BKN
06:33 56.7 °F /  13.7 °C 42.1 °F /  5.6 °C 29.87 in /  1011.4 hPa North 9.0 mph /  14.5 km/h 9.0 mph /  14.5 km/h 58 % 0.00 in /  0 mm 0.0 W/m2 BKN
06:38 56.6 °F /  13.7 °C 42.4 °F /  5.8 °C 29.87 in /  1011.4 hPa NNW 12.0 mph /  19.3 km/h 12.0 mph /  19.3 km/h 59 % 0.00 in /  0 mm 0.0 W/m2 BKN
06:43 56.6 °F /  13.7 °C 42.4 °F /  5.8 °C 29.87 in /  1011.4 hPa NNW 11.5 mph /  18.5 km/h 11.5 mph /  18.5 km/h 59 % 0.00 in /  0 mm 0.0 W/m2 BKN
06:48 56.6 °F /  13.7 °C 42.4 °F /  5.8 °C 29.87 in /  1011.4 hPa WNW 11.5 mph /  18.5 km/h 11.5 mph /  18.5 km/h 59 % 0.00 in /  0 mm 0.0 W/m2 BKN
06:53 56.6 °F /  13.7 °C 42.4 °F /  5.8 °C 29.87 in /  1011.4 hPa NW 13.8 mph /  22.2 km/h 13.8 mph /  22.2 km/h 59 % 0.00 in /  0 mm 0.0 W/m2 BKN
06:58 56.6 °F /  13.7 °C 42.4 °F /  5.8 °C 29.88 in /  1011.7 hPa NW 10.4 mph /  16.7 km/h 10.4 mph /  16.7 km/h 59 % 0.00 in /  0 mm 0.0 W/m2 BKN
07:03 56.6 °F /  13.7 °C 42.9 °F /  6.1 °C 29.87 in /  1011.4 hPa WNW 10.4 mph /  16.7 km/h 10.4 mph /  16.7 km/h 60 % 0.00 in /  0 mm 7.0 W/m2 BKN
07:08 56.6 °F /  13.7 °C 42.9 °F /  6.1 °C 29.88 in /  1011.7 hPa NE 11.5 mph /  18.5 km/h 11.5 mph /  18.5 km/h 60 % 0.00 in /  0 mm 14.0 W/m2 BKN
07:13 56.5 °F /  13.6 °C 43.2 °F /  6.2 °C 29.88 in /  1011.7 hPa WNW 8.1 mph /  13 km/h 8.1 mph /  13 km/h 61 % 0.00 in /  0 mm 19.0 W/m2 BKN
07:14 56.6 °F /  13.7 °C 43.3 °F /  6.3 °C 29.88 in /  1011.7 hPa NW 12.0 mph /  19.3 km/h 12.0 mph /  19.3 km/h 61 % 0.00 in /  0 mm 23.0 W/m2 BKN
07:19 56.6 °F /  13.7 °C 43.7 °F /  6.5 °C 29.88 in /  1011.7 hPa NW 11.5 mph /  18.5 km/h 11.5 mph /  18.5 km/h 62 % 0.00 in /  0 mm 40.0 W/m2 BKN
07:24 56.6 °F /  13.7 °C 43.7 °F /  6.5 °C 29.88 in /  1011.7 hPa NW 12.0 mph /  19.3 km/h 12.0 mph /  19.3 km/h 62 % 0.00 in /  0 mm 40.0 W/m2 BKN
07:29 56.7 °F /  13.7 °C 44.2 °F /  6.8 °C 29.88 in /  1011.7 hPa NNW 9.2 mph /  14.8 km/h 9.2 mph /  14.8 km/h 63 % 0.00 in /  0 mm 62.0 W/m2 BKN
07:34 56.8 °F /  13.8 °C 44.7 °F /  7.1 °C 29.88 in /  1011.7 hPa NNW 12.0 mph /  19.3 km/h 12.0 mph /  19.3 km/h 64 % 0.00 in /  0 mm 42.0 W/m2 BKN
07:39 57.0 °F /  13.9 °C 44.9 °F /  7.2 °C 29.89 in /  1012.1 hPa WNW 10.4 mph /  16.7 km/h 10.4 mph /  16.7 km/h 64 % 0.00 in /  0 mm 42.0 W/m2 BKN
07:44 57.1 °F /  13.9 °C 45.4 °F /  7.4 °C 29.89 in /  1012.1 hPa NNW 9.2 mph /  14.8 km/h 9.2 mph /  14.8 km/h 65 % 0.00 in /  0 mm 33.0 W/m2 BKN
07:49 57.2 °F /  14 °C 45.5 °F /  7.5 °C 29.89 in /  1012.1 hPa NW 9.2 mph /  14.8 km/h 9.2 mph /  14.8 km/h 65 % 0.00 in /  0 mm 39.0 W/m2 BKN
07:54 57.4 °F /  14.1 °C 46.1 °F /  7.8 °C 29.90 in /  1012.4 hPa WNW 10.4 mph /  16.7 km/h 10.4 mph /  16.7 km/h 66 % 0.00 in /  0 mm 39.0 W/m2 BKN
07:59 57.6 °F /  14.2 °C 46.7 °F /  8.2 °C 29.90 in /  1012.4 hPa WNW 11.5 mph /  18.5 km/h 11.5 mph /  18.5 km/h 67 % 0.00 in /  0 mm 33.0 W/m2 BKN
08:04 57.8 °F /  14.3 °C 46.9 °F /  8.3 °C 29.90 in /  1012.4 hPa WNW 11.5 mph /  18.5 km/h 11.5 mph /  18.5 km/h 67 % 0.00 in /  0 mm 46.0 W/m2 BKN
08:09 57.9 °F /  14.4 °C 46.6 °F /  8.1 °C 29.91 in /  1012.8 hPa WSW 10.4 mph /  16.7 km/h 10.4 mph /  16.7 km/h 66 % 0.00 in /  0 mm 28.0 W/m2 BKN
08:14 58.0 °F /  14.4 °C 47.1 °F /  8.4 °C 29.92 in /  1013.1 hPa West 6.0 mph /  9.7 km/h 6.0 mph /  9.7 km/h 67 % 0.00 in /  0 mm 23.0 W/m2 BKN
08:19 58.0 °F /  14.4 °C 48.3 °F /  9.1 °C 29.92 in /  1013.1 hPa WNW 10.4 mph /  16.7 km/h 10.4 mph /  16.7 km/h 70 % 0.00 in /  0 mm 39.0 W/m2 BKN
08:24 57.8 °F /  14.3 °C 48.8 °F /  9.3 °C 29.93 in /  1013.4 hPa SW 8.1 mph /  13 km/h 8.1 mph /  13 km/h 72 % 0.01 in /  0.25 mm 40.0 W/m2 RA
08:29 57.3 °F /  14.1 °C 49.4 °F /  9.7 °C 29.94 in /  1013.8 hPa SW 3.5 mph /  5.6 km/h 3.5 mph /  5.6 km/h 75 % 0.02 in /  0.51 mm 51.0 W/m2 RA
08:34 56.6 °F /  13.7 °C 49.5 °F /  9.7 °C 29.95 in /  1014.1 hPa West 10.4 mph /  16.7 km/h 10.4 mph /  16.7 km/h 77 % 0.02 in /  0.51 mm 40.0 W/m2 BKN
08:39 55.9 °F /  13.3 °C 49.8 °F /  9.9 °C 29.95 in /  1014.1 hPa WSW 5.8 mph /  9.3 km/h 5.8 mph /  9.3 km/h 80 % 0.02 in /  0.51 mm 53.0 W/m2 RA
08:44 55.6 °F /  13.1 °C 50.2 °F /  10.1 °C 29.95 in /  1014.1 hPa SW 3.5 mph /  5.6 km/h 3.5 mph /  5.6 km/h 82 % 0.02 in /  0.51 mm 81.0 W/m2 BKN
08:49 55.6 °F /  13.1 °C 50.5 °F /  10.3 °C 29.95 in /  1014.1 hPa WSW 4.0 mph /  6.4 km/h 4.0 mph /  6.4 km/h 83 % 0.02 in /  0.51 mm 86.0 W/m2 BKN
08:54 55.5 °F /  13.1 °C 51.1 °F /  10.6 °C 29.95 in /  1014.1 hPa West 12.7 mph /  20.4 km/h 12.7 mph /  20.4 km/h 85 % 0.02 in /  0.51 mm 102.0 W/m2 BKN
08:59 55.6 °F /  13.1 °C 51.5 °F /  10.8 °C 29.96 in /  1014.4 hPa West 10.0 mph /  16.1 km/h 10.0 mph /  16.1 km/h 86 % 0.02 in /  0.51 mm 127.0 W/m2 BKN
09:04 55.8 °F /  13.2 °C 52.0 °F /  11.1 °C 29.96 in /  1014.4 hPa WSW 7.0 mph /  11.3 km/h 7.0 mph /  11.3 km/h 87 % 0.02 in /  0.51 mm 148.0 W/m2 RA
09:09 55.9 °F /  13.3 °C 52.4 °F /  11.3 °C 29.96 in /  1014.4 hPa SSW 6.9 mph /  11.1 km/h 6.9 mph /  11.1 km/h 88 % 0.02 in /  0.51 mm 141.0 W/m2 BKN
09:14 56.1 °F /  13.4 °C 52.6 °F /  11.4 °C 29.97 in /  1014.8 hPa SW 5.8 mph /  9.3 km/h 5.8 mph /  9.3 km/h 88 % 0.02 in /  0.51 mm 137.0 W/m2 BKN
09:19 56.2 °F /  13.4 °C 52.7 °F /  11.5 °C 29.97 in /  1014.8 hPa SW 6.9 mph /  11.1 km/h 6.9 mph /  11.1 km/h 88 % 0.02 in /  0.51 mm 118.0 W/m2 BKN
09:24 56.3 °F /  13.5 °C 52.8 °F /  11.6 °C 29.97 in /  1014.8 hPa SW 6.0 mph /  9.7 km/h 6.0 mph /  9.7 km/h 88 % 0.02 in /  0.51 mm 197.0 W/m2 BKN
09:29 56.6 °F /  13.7 °C 53.1 °F /  11.7 °C 29.97 in /  1014.8 hPa WSW 8.1 mph /  13 km/h 8.1 mph /  13 km/h 88 % 0.01 in /  0.25 mm 290.0 W/m2 BKN
09:34 56.8 °F /  13.8 °C 53.0 °F /  11.7 °C 29.98 in /  1015.1 hPa SW 6.9 mph /  11.1 km/h 6.9 mph /  11.1 km/h 87 % 0.01 in /  0.25 mm 174.0 W/m2 BKN
09:39 56.9 °F /  13.8 °C 53.1 °F /  11.7 °C 29.98 in /  1015.1 hPa WSW 11.5 mph /  18.5 km/h 11.5 mph /  18.5 km/h 87 % 0.00 in /  0 mm 178.0 W/m2 BKN
09:44 57.2 °F /  14 °C 53.4 °F /  11.9 °C 29.98 in /  1015.1 hPa WSW 10.4 mph /  16.7 km/h 10.4 mph /  16.7 km/h 87 % 0.01 in /  0.25 mm 207.0 W/m2 RA
09:49 57.4 °F /  14.1 °C 53.2 °F /  11.8 °C 29.98 in /  1015.1 hPa WSW 9.2 mph /  14.8 km/h 9.2 mph /  14.8 km/h 86 % 0.01 in /  0.25 mm 163.0 W/m2 BKN
09:54 57.6 °F /  14.2 °C 53.1 °F /  11.7 °C 29.98 in /  1015.1 hPa West 10.4 mph /  16.7 km/h 10.4 mph /  16.7 km/h 85 % 0.01 in /  0.25 mm 165.0 W/m2 BKN
09:59 57.8 °F /  14.3 °C 53.0 °F /  11.7 °C 29.99 in /  1015.5 hPa WSW 11.0 mph /  17.7 km/h 11.0 mph /  17.7 km/h 84 % 0.01 in /  0.25 mm 213.0 W/m2 BKN
10:04 58.0 °F /  14.4 °C 52.9 °F /  11.6 °C 29.99 in /  1015.5 hPa WSW 11.5 mph /  18.5 km/h 11.5 mph /  18.5 km/h 83 % 0.01 in /  0.25 mm 223.0 W/m2 BKN
10:09 58.3 °F /  14.6 °C 52.5 °F /  11.4 °C 29.99 in /  1015.5 hPa WSW 12.7 mph /  20.4 km/h 12.7 mph /  20.4 km/h 81 % 0.01 in /  0.25 mm 309.0 W/m2 BKN
10:14 58.9 °F /  14.9 °C 52.7 °F /  11.5 °C 29.99 in /  1015.5 hPa WNW 10.4 mph /  16.7 km/h 10.4 mph /  16.7 km/h 80 % 0.01 in /  0.25 mm 327.0 W/m2 BKN
10:19 59.8 °F /  15.4 °C 52.6 °F /  11.4 °C 29.99 in /  1015.5 hPa SSW 9.2 mph /  14.8 km/h 9.2 mph /  14.8 km/h 77 % 0.01 in /  0.25 mm 659.0 W/m2 BKN
10:24 60.2 °F /  15.7 °C 51.5 °F /  10.8 °C 29.99 in /  1015.5 hPa SW 11.5 mph /  18.5 km/h 11.5 mph /  18.5 km/h 73 % 0.01 in /  0.25 mm 698.0 W/m2 BKN
10:29 60.5 °F /  15.8 °C 51.4 °F /  10.8 °C 30.00 in /  1015.8 hPa SW 9.2 mph /  14.8 km/h 9.2 mph /  14.8 km/h 72 % 0.01 in /  0.25 mm 302.0 W/m2 BKN
10:34 60.9 °F /  16.1 °C 51.4 °F /  10.8 °C 30.00 in /  1015.8 hPa SW 15.0 mph /  24.1 km/h 15.0 mph /  24.1 km/h 71 % 0.01 in /  0.25 mm 689.0 W/m2 SCT
10:39 60.8 °F /  16 °C 49.0 °F /  9.4 °C 30.00 in /  1015.8 hPa WSW 14.0 mph /  22.5 km/h 14.0 mph /  22.5 km/h 65 % 0.01 in /  0.25 mm 260.0 W/m2 SCT
10:44 60.8 °F /  16 °C 49.4 °F /  9.7 °C 30.00 in /  1015.8 hPa SSW 10.4 mph /  16.7 km/h 10.4 mph /  16.7 km/h 66 % 0.00 in /  0 mm 239.0 W/m2 SCT
10:49 60.8 °F /  16 °C 49.0 °F /  9.4 °C 30.00 in /  1015.8 hPa SSW 13.8 mph /  22.2 km/h 13.8 mph /  22.2 km/h 65 % 0.00 in /  0 mm 243.0 W/m2 SCT
10:54 60.8 °F /  16 °C 49.0 °F /  9.4 °C 30.00 in /  1015.8 hPa West 12.7 mph /  20.4 km/h 12.7 mph /  20.4 km/h 65 % 0.00 in /  0 mm 288.0 W/m2 SCT
10:59 61.1 °F /  16.2 °C 48.0 °F /  8.9 °C 30.01 in /  1016.1 hPa SSW 15.0 mph /  24.1 km/h 15.0 mph /  24.1 km/h 62 % 0.00 in /  0 mm 271.0 W/m2 SCT
11:04 61.4 °F /  16.3 °C 48.7 °F /  9.3 °C 30.01 in /  1016.1 hPa WSW 11.0 mph /  17.7 km/h 11.0 mph /  17.7 km/h 63 % 0.00 in /  0 mm 626.0 W/m2 SCT
11:09 62.3 °F /  16.8 °C 49.1 °F /  9.5 °C 30.01 in /  1016.1 hPa SSW 9.2 mph /  14.8 km/h 9.2 mph /  14.8 km/h 62 % 0.00 in /  0 mm 675.0 W/m2 SCT
11:14 62.8 °F /  17.1 °C 47.8 °F /  8.8 °C 30.01 in /  1016.1 hPa SW 17.3 mph /  27.8 km/h 17.3 mph /  27.8 km/h 58 % 0.00 in /  0 mm 550.0 W/m2 SCT
11:19 62.6 °F /  17 °C 47.6 °F /  8.7 °C 30.01 in /  1016.1 hPa SSW 13.8 mph /  22.2 km/h 13.8 mph /  22.2 km/h 58 % 0.00 in /  0 mm 343.0 W/m2 FEW
11:24 62.5 °F /  16.9 °C 47.1 °F /  8.4 °C 30.01 in /  1016.1 hPa SSW 11.5 mph /  18.5 km/h 11.5 mph /  18.5 km/h 57 % 0.00 in /  0 mm 227.0 W/m2 FEW
11:29 61.9 °F /  16.6 °C 46.5 °F /  8.1 °C 30.01 in /  1016.1 hPa SW 18.4 mph /  29.6 km/h 18.4 mph /  29.6 km/h 57 % 0.00 in /  0 mm 211.0 W/m2 FEW
11:34 61.4 °F /  16.3 °C 45.6 °F /  7.6 °C 30.01 in /  1016.1 hPa SSW 16.1 mph /  25.9 km/h 16.1 mph /  25.9 km/h 56 % 0.00 in /  0 mm 165.0 W/m2 FEW
11:39 61.2 °F /  16.2 °C 45.4 °F /  7.4 °C 30.01 in /  1016.1 hPa WSW 15.0 mph /  24.1 km/h 15.0 mph /  24.1 km/h 56 % 0.00 in /  0 mm 577.0 W/m2 FEW
11:44 62.1 °F /  16.7 °C 45.7 °F /  7.6 °C 30.02 in /  1016.5 hPa WSW 13.8 mph /  22.2 km/h 13.8 mph /  22.2 km/h 55 % 0.00 in /  0 mm 691.0 W/m2 FEW
11:49 63.3 °F /  17.4 °C 45.9 °F /  7.7 °C 30.02 in /  1016.5 hPa SSW 10.4 mph /  16.7 km/h 10.4 mph /  16.7 km/h 53 % 0.00 in /  0 mm 726.0 W/m2 FEW
11:54 63.1 °F /  17.3 °C 45.7 °F /  7.6 °C 30.02 in /  1016.5 hPa SSW 11.5 mph /  18.5 km/h 11.5 mph /  18.5 km/h 53 % 0.00 in /  0 mm 264.0 W/m2 FEW
11:59 62.5 °F /  16.9 °C 46.6 °F /  8.1 °C 30.02 in /  1016.5 hPa SSW 8.1 mph /  13 km/h 8.1 mph /  13 km/h 56 % 0.00 in /  0 mm 220.0 W/m2 FEW
12:04 62.0 °F /  16.7 °C 47.0 °F /  8.3 °C 30.02 in /  1016.5 hPa SW 7.0 mph /  11.3 km/h 7.0 mph /  11.3 km/h 58 % 0.00 in /  0 mm 178.0 W/m2 SCT
12:09 63.0 °F /  17.2 °C 46.6 °F /  8.1 °C 30.02 in /  1016.5 hPa SW 12.7 mph /  20.4 km/h 12.7 mph /  20.4 km/h 55 % 0.00 in /  0 mm 731.0 W/m2 SCT
12:14 63.4 °F /  17.4 °C 46.9 °F /  8.3 °C 30.02 in /  1016.5 hPa SW 8.0 mph /  12.9 km/h 8.0 mph /  12.9 km/h 55 % 0.00 in /  0 mm 283.0 W/m2 SCT
12:19 63.4 °F /  17.4 °C 47.4 °F /  8.6 °C 30.02 in /  1016.5 hPa WSW 12.7 mph /  20.4 km/h 12.7 mph /  20.4 km/h 56 % 0.00 in /  0 mm 833.0 W/m2 FEW
12:24 63.6 °F /  17.6 °C 47.1 °F /  8.4 °C 30.02 in /  1016.5 hPa SW 13.8 mph /  22.2 km/h 13.8 mph /  22.2 km/h 55 % 0.00 in /  0 mm 833.0 W/m2 FEW
12:29 63.8 °F /  17.7 °C 47.8 °F /  8.8 °C 30.02 in /  1016.5 hPa South 10.4 mph /  16.7 km/h 10.4 mph /  16.7 km/h 56 % 0.00 in /  0 mm 274.0 W/m2 FEW
12:34 63.2 °F /  17.3 °C 47.2 °F /  8.4 °C 30.01 in /  1016.1 hPa WSW 16.1 mph /  25.9 km/h 16.1 mph /  25.9 km/h 56 % 0.00 in /  0 mm 186.0 W/m2 FEW
12:39 62.4 °F /  16.9 °C 46.5 °F /  8.1 °C 30.01 in /  1016.1 hPa WSW 15.0 mph /  24.1 km/h 15.0 mph /  24.1 km/h 56 % 0.00 in /  0 mm 185.0 W/m2 FEW
12:44 62.2 °F /  16.8 °C 46.8 °F /  8.2 °C 30.01 in /  1016.1 hPa SSW 16.0 mph /  25.7 km/h 16.0 mph /  25.7 km/h 57 % 0.00 in /  0 mm 666.0 W/m2 FEW
12:49 62.8 °F /  17.1 °C 45.4 °F /  7.4 °C 30.01 in /  1016.1 hPa SW 12.7 mph /  20.4 km/h 12.7 mph /  20.4 km/h 53 % 0.00 in /  0 mm 388.0 W/m2 FEW
12:54 63.1 °F /  17.3 °C 44.7 °F /  7.1 °C 30.02 in /  1016.5 hPa SSW 19.6 mph /  31.5 km/h 19.6 mph /  31.5 km/h 51 % 0.00 in /  0 mm 221.0 W/m2 FEW
12:59 62.7 °F /  17.1 °C 44.3 °F /  6.8 °C 30.02 in /  1016.5 hPa WSW 13.0 mph /  20.9 km/h 13.0 mph /  20.9 km/h 51 % 0.00 in /  0 mm 236.0 W/m2 FEW
13:04 62.7 °F /  17.1 °C 43.3 °F /  6.3 °C 30.02 in /  1016.5 hPa SW 11.0 mph /  17.7 km/h 11.0 mph /  17.7 km/h 49 % 0.00 in /  0 mm 640.0 W/m2 FEW
13:09 63.6 °F /  17.6 °C 44.1 °F /  6.7 °C 30.02 in /  1016.5 hPa WSW 11.5 mph /  18.5 km/h 11.5 mph /  18.5 km/h 49 % 0.00 in /  0 mm 610.0 W/m2 FEW
13:14 64.7 °F /  18.2 °C 44.5 °F /  6.9 °C 30.02 in /  1016.5 hPa SSW 10.4 mph /  16.7 km/h 10.4 mph /  16.7 km/h 48 % 0.00 in /  0 mm 606.0 W/m2 FEW
13:20 64.7 °F /  18.2 °C 43.4 °F /  6.3 °C 30.02 in /  1016.5 hPa WSW 14.0 mph /  22.5 km/h 14.0 mph /  22.5 km/h 46 % 0.00 in /  0 mm 598.0 W/m2 FEW
13:25 64.2 °F /  17.9 °C 42.4 °F /  5.8 °C 30.02 in /  1016.5 hPa SW 11.5 mph /  18.5 km/h 11.5 mph /  18.5 km/h 45 % 0.00 in /  0 mm 606.0 W/m2 FEW
13:30 64.8 °F /  18.2 °C 42.4 °F /  5.8 °C 30.02 in /  1016.5 hPa South 13.0 mph /  20.9 km/h 13.0 mph /  20.9 km/h 44 % 0.00 in /  0 mm 596.0 W/m2 FEW
13:35 65.0 °F /  18.3 °C 41.9 °F /  5.5 °C 30.02 in /  1016.5 hPa South 15.0 mph /  24.1 km/h 15.0 mph /  24.1 km/h 43 % 0.00 in /  0 mm 587.0 W/m2 CLR
13:40 64.9 °F /  18.3 °C 41.9 °F /  5.5 °C 30.02 in /  1016.5 hPa SSW 10.4 mph /  16.7 km/h 10.4 mph /  16.7 km/h 43 % 0.00 in /  0 mm 582.0 W/m2 CLR
13:45 65.1 °F /  18.4 °C 42.0 °F /  5.6 °C 30.02 in /  1016.5 hPa SW 16.1 mph /  25.9 km/h 16.1 mph /  25.9 km/h 43 % 0.00 in /  0 mm 568.0 W/m2 CLR
13:50 65.6 °F /  18.7 °C 41.9 °F /  5.5 °C 30.02 in /  1016.5 hPa SSW 15.0 mph /  24.1 km/h 15.0 mph /  24.1 km/h 42 % 0.00 in /  0 mm 559.0 W/m2 CLR
13:55 65.9 °F /  18.8 °C 42.8 °F /  6 °C 30.02 in /  1016.5 hPa SSW 9.0 mph /  14.5 km/h 9.0 mph /  14.5 km/h 43 % 0.00 in /  0 mm 552.0 W/m2 CLR
14:00 65.4 °F /  18.6 °C 41.7 °F /  5.4 °C 30.02 in /  1016.5 hPa SSW 11.5 mph /  18.5 km/h 11.5 mph /  18.5 km/h 42 % 0.00 in /  0 mm 552.0 W/m2 CLR
14:01 65.2 °F /  18.4 °C 40.9 °F /  4.9 °C 30.02 in /  1016.5 hPa SSW 12.0 mph /  19.3 km/h 12.0 mph /  19.3 km/h 41 % 0.00 in /  0 mm 550.0 W/m2 CLR
14:06 65.3 °F /  18.5 °C 42.2 °F /  5.7 °C 30.02 in /  1016.5 hPa South 4.6 mph /  7.4 km/h 4.6 mph /  7.4 km/h 43 % 0.00 in /  0 mm 531.0 W/m2 CLR
14:11 65.7 °F /  18.7 °C 41.3 °F /  5.2 °C 30.02 in /  1016.5 hPa SW 9.2 mph /  14.8 km/h 9.2 mph /  14.8 km/h 41 % 0.00 in /  0 mm 519.0 W/m2 CLR
14:16 65.6 °F /  18.7 °C 41.3 °F /  5.2 °C 30.02 in /  1016.5 hPa SSW 8.1 mph /  13 km/h 8.1 mph /  13 km/h 41 % 0.00 in /  0 mm 519.0 W/m2 CLR
14:21 65.4 °F /  18.6 °C 41.1 °F /  5.1 °C 30.02 in /  1016.5 hPa SSW 8.0 mph /  12.9 km/h 8.0 mph /  12.9 km/h 41 % 0.00 in /  0 mm 512.0 W/m2 CLR
14:26 65.2 °F /  18.4 °C 42.1 °F /  5.6 °C 30.02 in /  1016.5 hPa SSW 10.4 mph /  16.7 km/h 10.4 mph /  16.7 km/h 43 % 0.00 in /  0 mm 501.0 W/m2 CLR
14:31 65.6 °F /  18.7 °C 41.3 °F /  5.2 °C 30.02 in /  1016.5 hPa South 8.1 mph /  13 km/h 8.1 mph /  13 km/h 41 % 0.00 in /  0 mm 494.0 W/m2 CLR
14:36 65.4 °F /  18.6 °C 41.7 °F /  5.4 °C 30.02 in /  1016.5 hPa SSW 10.4 mph /  16.7 km/h 10.4 mph /  16.7 km/h 42 % 0.00 in /  0 mm 480.0 W/m2 CLR
14:41 65.4 °F /  18.6 °C 42.3 °F /  5.7 °C 30.02 in /  1016.5 hPa South 9.0 mph /  14.5 km/h 9.0 mph /  14.5 km/h 43 % 0.00 in /  0 mm 469.0 W/m2 CLR
14:46 65.0 °F /  18.3 °C 40.1 °F /  4.5 °C 30.02 in /  1016.5 hPa SSW 9.2 mph /  14.8 km/h 9.2 mph /  14.8 km/h 40 % 0.00 in /  0 mm 450.0 W/m2 CLR
14:51 65.6 °F /  18.7 °C 41.3 °F /  5.2 °C 30.02 in /  1016.5 hPa WSW 9.2 mph /  14.8 km/h 9.2 mph /  14.8 km/h 41 % 0.00 in /  0 mm 445.0 W/m2 CLR
14:56 65.4 °F /  18.6 °C 41.1 °F /  5.1 °C 30.02 in /  1016.5 hPa SSW 9.2 mph /  14.8 km/h 9.2 mph /  14.8 km/h 41 % 0.00 in /  0 mm 434.0 W/m2 CLR
15:01 64.9 °F /  18.3 °C 40.0 °F /  4.4 °C 30.03 in /  1016.8 hPa SSW 9.2 mph /  14.8 km/h 9.2 mph /  14.8 km/h 40 % 0.00 in /  0 mm 422.0 W/m2 CLR
15:06 65.6 °F /  18.7 °C 40.0 °F /  4.4 °C 30.03 in /  1016.8 hPa WNW 11.5 mph /  18.5 km/h 11.5 mph /  18.5 km/h 39 % 0.00 in /  0 mm 408.0 W/m2 CLR
15:11 64.8 °F /  18.2 °C 40.5 °F /  4.7 °C 30.03 in /  1016.8 hPa SSW 12.0 mph /  19.3 km/h 12.0 mph /  19.3 km/h 41 % 0.00 in /  0 mm 388.0 W/m2 CLR
15:16 65.2 °F /  18.4 °C 40.9 °F /  4.9 °C 30.03 in /  1016.8 hPa SSW 8.0 mph /  12.9 km/h 8.0 mph /  12.9 km/h 41 % 0.00 in /  0 mm 380.0 W/m2 CLR
15:21 64.9 °F /  18.3 °C 41.9 °F /  5.5 °C 30.03 in /  1016.8 hPa SW 7.0 mph /  11.3 km/h 7.0 mph /  11.3 km/h 43 % 0.00 in /  0 mm 364.0 W/m2 CLR
15:26 64.8 °F /  18.2 °C 41.8 °F /  5.4 °C 30.03 in /  1016.8 hPa South 8.1 mph /  13 km/h 8.1 mph /  13 km/h 43 % 0.00 in /  0 mm 352.0 W/m2 CLR
15:31 63.8 °F /  17.7 °C 40.9 °F /  4.9 °C 30.03 in /  1016.8 hPa South 4.6 mph /  7.4 km/h 4.6 mph /  7.4 km/h 43 % 0.00 in /  0 mm 338.0 W/m2 CLR
15:36 63.7 °F /  17.6 °C 40.8 °F /  4.9 °C 30.03 in /  1016.8 hPa SSW 9.2 mph /  14.8 km/h 9.2 mph /  14.8 km/h 43 % 0.00 in /  0 mm 323.0 W/m2 CLR
15:41 63.2 °F /  17.3 °C 41.5 °F /  5.3 °C 30.04 in /  1017.2 hPa SSW 6.9 mph /  11.1 km/h 6.9 mph /  11.1 km/h 45 % 0.00 in /  0 mm 308.0 W/m2 CLR
15:46 63.2 °F /  17.3 °C 41.5 °F /  5.3 °C 30.04 in /  1017.2 hPa SSW 9.2 mph /  14.8 km/h 9.2 mph /  14.8 km/h 45 % 0.00 in /  0 mm 294.0 W/m2 CLR
15:51 63.1 °F /  17.3 °C 42.0 °F /  5.6 °C 30.04 in /  1017.2 hPa SW 7.0 mph /  11.3 km/h 7.0 mph /  11.3 km/h 46 % 0.00 in /  0 mm 276.0 W/m2 CLR
15:56 62.7 °F /  17.1 °C 42.7 °F /  5.9 °C 30.04 in /  1017.2 hPa SSE 4.6 mph /  7.4 km/h 4.6 mph /  7.4 km/h 48 % 0.00 in /  0 mm 257.0 W/m2 CLR
16:01 62.3 °F /  16.8 °C 43.4 °F /  6.3 °C 30.04 in /  1017.2 hPa SSW 5.0 mph /  8 km/h 5.0 mph /  8 km/h 50 % 0.00 in /  0 mm 232.0 W/m2 CLR
16:06 62.2 °F /  16.8 °C 43.3 °F /  6.3 °C 30.04 in /  1017.2 hPa SSW 6.0 mph /  9.7 km/h 6.0 mph /  9.7 km/h 50 % 0.00 in /  0 mm 58.0 W/m2 FEW
16:11 62.0 °F /  16.7 °C 43.1 °F /  6.2 °C 30.04 in /  1017.2 hPa ESE 9.2 mph /  14.8 km/h 9.2 mph /  14.8 km/h 50 % 0.00 in /  0 mm 53.0 W/m2 SCT
16:16 61.8 °F /  16.6 °C 44.0 °F /  6.7 °C 30.04 in /  1017.2 hPa ESE 6.9 mph /  11.1 km/h 6.9 mph /  11.1 km/h 52 % 0.00 in /  0 mm 53.0 W/m2 BKN
16:21 61.8 °F /  16.6 °C 44.5 °F /  6.9 °C 30.04 in /  1017.2 hPa South 3.5 mph /  5.6 km/h 3.5 mph /  5.6 km/h 53 % 0.00 in /  0 mm 49.0 W/m2 BKN
16:26 61.9 °F /  16.6 °C 44.6 °F /  7 °C 30.05 in /  1017.5 hPa South 7.0 mph /  11.3 km/h 7.0 mph /  11.3 km/h 53 % 0.00 in /  0 mm 46.0 W/m2 BKN
16:31 61.7 °F /  16.5 °C 43.9 °F /  6.6 °C 30.05 in /  1017.5 hPa SE 5.8 mph /  9.3 km/h 5.8 mph /  9.3 km/h 52 % 0.00 in /  0 mm 44.0 W/m2 BKN
16:36 61.5 °F /  16.4 °C 43.7 °F /  6.5 °C 30.05 in /  1017.5 hPa SSW 4.6 mph /  7.4 km/h 4.6 mph /  7.4 km/h 52 % 0.00 in /  0 mm 42.0 W/m2 BKN
16:41 61.4 °F /  16.3 °C 43.6 °F /  6.4 °C 30.05 in /  1017.5 hPa South 5.8 mph /  9.3 km/h 5.8 mph /  9.3 km/h 52 % 0.00 in /  0 mm 40.0 W/m2 BKN
16:46 61.1 °F /  16.2 °C 43.8 °F /  6.6 °C 30.05 in /  1017.5 hPa South 5.8 mph /  9.3 km/h 5.8 mph /  9.3 km/h 53 % 0.00 in /  0 mm 39.0 W/m2 BKN
16:51 61.0 °F /  16.1 °C 44.2 °F /  6.8 °C 30.05 in /  1017.5 hPa South 5.0 mph /  8 km/h 5.0 mph /  8 km/h 54 % 0.00 in /  0 mm 33.0 W/m2 BKN
16:56 60.7 °F /  15.9 °C 44.9 °F /  7.2 °C 30.05 in /  1017.5 hPa SSW 5.0 mph /  8 km/h 5.0 mph /  8 km/h 56 % 0.00 in /  0 mm 28.0 W/m2 BKN
17:01 60.3 °F /  15.7 °C 45.0 °F /  7.2 °C 30.06 in /  1017.8 hPa SSE 4.0 mph /  6.4 km/h 4.0 mph /  6.4 km/h 57 % 0.00 in /  0 mm 25.0 W/m2 BKN
17:06 60.1 °F /  15.6 °C 44.8 °F /  7.1 °C 30.06 in /  1017.8 hPa South 9.2 mph /  14.8 km/h 9.2 mph /  14.8 km/h 57 % 0.00 in /  0 mm 21.0 W/m2 BKN
Melbourne Forecast
About Melbourne | City of Melbourne official website